Time,TemperatureF,DewpointF,PressureIn,WindDirection,WindDirectionDegrees,WindSpeedMPH,WindSpeedGustMPH,Humidity,HourlyPrecipIn,Conditions,Clouds,dailyrainin,SoftwareType,DateUTC
2013-07-22 00:00:00,64.1,60.5,29.99,NNE,23,0.0,0.0,88,0.00,,,0.00,Wunderground v.1.15,2013-07-22 04:00:00,
2013-07-22 00:05:00,64.2,60.6,29.99,NNE,24,0.0,0.0,88,0.00,,,0.00,Wunderground v.1.15,2013-07-22 04:05:00,
2013-07-22 00:10:00,64.1,60.2,29.99,NNE,24,0.0,0.0,87,0.00,,,0.00,Wunderground v.1.15,2013-07-22 04:10:00,
2013-07-22 00:15:00,64.2,60.6,29.99,NNE,23,0.0,0.0,88,0.00,,,0.00,Wunderground v.1.15,2013-07-22 04:15:00,
2013-07-22 00:20:00,64.4,60.4,29.99,NNE,24,0.0,0.0,87,0.00,,,0.00,Wunderground v.1.15,2013-07-22 04:20:00,
2013-07-22 00:25:00,64.4,60.4,29.99,NNE,24,0.0,0.0,87,0.00,,,0.00,Wunderground v.1.15,2013-07-22 04:25:00,
2013-07-22 00:30:00,64.5,60.5,29.99,NNE,24,0.0,0.0,87,0.00,,,0.00,Wunderground v.1.15,2013-07-22 04:30:00,
2013-07-22 00:35:00,64.6,61.3,29.99,NNE,24,0.0,0.0,89,0.00,,,0.00,Wunderground v.1.15,2013-07-22 04:35:00,
2013-07-22 00:40:00,64.5,61.2,29.99,NNE,24,0.0,0.0,89,0.00,,,0.00,Wunderground v.1.15,2013-07-22 04:40:00,
2013-07-22 00:50:00,64.1,61.1,29.99,NNE,24,0.0,0.0,90,0.00,,,0.00,Wunderground v.1.15,2013-07-22 04:50:00,
2013-07-22 00:55:00,63.9,60.9,29.99,NNE,24,0.0,0.0,90,0.00,,,0.00,Wunderground v.1.15,2013-07-22 04:55:00,
2013-07-22 01:00:00,63.8,61.1,29.99,NNE,24,0.0,0.0,91,0.00,,,0.00,Wunderground v.1.15,2013-07-22 05:00:00,
2013-07-22 01:04:00,63.7,61.0,29.99,NNE,24,0.0,0.0,91,0.00,,,0.00,Wunderground v.1.15,2013-07-22 05:04:00,
2013-07-22 01:09:00,63.7,61.0,29.99,NNE,24,0.0,0.0,91,0.00,,,0.00,Wunderground v.1.15,2013-07-22 05:09:00,
2013-07-22 01:14:00,63.7,61.0,29.99,NNE,24,0.0,0.0,91,0.00,,,0.00,Wunderground v.1.15,2013-07-22 05:14:00,
2013-07-22 01:19:00,63.9,61.2,29.99,NNE,24,0.0,0.0,91,0.00,,,0.00,Wunderground v.1.15,2013-07-22 05:19:00,
2013-07-22 01:24:00,64.1,61.4,29.98,NNE,23,0.0,0.0,91,0.00,,,0.00,Wunderground v.1.15,2013-07-22 05:24:00,
2013-07-22 01:29:00,64.1,61.4,29.98,NNE,24,0.0,0.0,91,0.00,,,0.00,Wunderground v.1.15,2013-07-22 05:29:00,
2013-07-22 01:34:00,64.1,61.4,29.98,NNE,24,0.0,0.0,91,0.00,,,0.00,Wunderground v.1.15,2013-07-22 05:34:00,
2013-07-22 01:44:00,64.1,61.4,29.98,NNE,24,0.0,0.0,91,0.00,,,0.00,Wunderground v.1.15,2013-07-22 05:44:00,
2013-07-22 01:49:00,64.1,61.4,29.97,NNE,24,0.0,0.0,91,0.00,,,0.00,Wunderground v.1.15,2013-07-22 05:49:00,
2013-07-22 01:54:00,64.0,61.3,29.98,NNE,24,0.0,0.0,91,0.00,,,0.00,Wunderground v.1.15,2013-07-22 05:54:00,
2013-07-22 02:00:00,63.9,61.2,29.98,NNE,23,0.0,0.0,91,0.00,,,0.00,Wunderground v.1.15,2013-07-22 06:00:00,
2013-07-22 02:10:00,63.9,61.2,29.98,NNE,24,0.0,0.0,91,0.00,,,0.00,Wunderground v.1.15,2013-07-22 06:10:00,
2013-07-22 02:15:00,63.9,61.5,29.98,NNE,24,0.0,0.0,92,0.00,,,0.00,Wunderground v.1.15,2013-07-22 06:15:00,
2013-07-22 02:20:00,63.9,61.5,29.98,NNE,24,0.0,0.0,92,0.00,,,0.00,Wunderground v.1.15,2013-07-22 06:20:00,
2013-07-22 02:25:00,63.9,61.5,29.97,NNE,24,0.0,0.0,92,0.00,,,0.00,Wunderground v.1.15,2013-07-22 06:25:00,
2013-07-22 02:30:00,63.8,61.4,29.97,NNE,24,0.0,0.0,92,0.00,,,0.00,Wunderground v.1.15,2013-07-22 06:30:00,
2013-07-22 02:35:00,63.7,61.3,29.97,NNE,24,0.0,0.0,92,0.00,,,0.00,Wunderground v.1.15,2013-07-22 06:35:00,
2013-07-22 02:45:00,63.5,61.1,29.97,NNE,24,0.0,0.0,92,0.00,,,0.00,Wunderground v.1.15,2013-07-22 06:45:00,
2013-07-22 02:50:00,63.3,60.9,29.96,NNE,24,0.0,0.0,92,0.00,,,0.00,Wunderground v.1.15,2013-07-22 06:50:00,
2013-07-22 02:55:00,63.2,61.1,29.96,NNE,24,0.0,0.0,93,0.00,,,0.00,Wunderground v.1.15,2013-07-22 06:55:00,
2013-07-22 03:00:00,63.0,60.9,29.96,NNE,25,0.0,0.0,93,0.00,,,0.00,Wunderground v.1.15,2013-07-22 07:00:00,
2013-07-22 03:10:00,63.0,60.6,29.96,NNE,25,0.0,0.0,92,0.00,,,0.00,Wunderground v.1.15,2013-07-22 07:10:00,
2013-07-22 03:20:00,62.8,60.7,29.96,NNE,25,0.0,0.0,93,0.00,,,0.00,Wunderground v.1.15,2013-07-22 07:20:00,
2013-07-22 03:25:00,62.9,60.8,29.96,North,9,0.0,0.0,93,0.00,,,0.00,Wunderground v.1.15,2013-07-22 07:25:00,
2013-07-22 03:30:00,62.9,60.8,29.96,North,9,0.0,0.0,93,0.00,,,0.00,Wunderground v.1.15,2013-07-22 07:30:00,
2013-07-22 03:35:00,62.9,60.8,29.96,North,9,0.0,0.0,93,0.00,,,0.00,Wunderground v.1.15,2013-07-22 07:35:00,
2013-07-22 03:40:00,63.1,61.0,29.95,East,97,0.0,0.0,93,0.00,,,0.00,Wunderground v.1.15,2013-07-22 07:40:00,
2013-07-22 03:50:00,63.2,61.1,29.95,East,96,0.0,0.0,93,0.00,,,0.00,Wunderground v.1.15,2013-07-22 07:50:00,
2013-07-22 03:55:00,63.4,61.0,29.95,WSW,240,0.0,0.0,92,0.00,,,0.00,Wunderground v.1.15,2013-07-22 07:55:00,
2013-07-22 04:00:00,63.5,61.1,29.95,WSW,240,0.0,0.0,92,0.00,,,0.00,Wunderground v.1.15,2013-07-22 08:00:00,
2013-07-22 04:10:00,63.5,61.1,29.95,WSW,241,0.0,0.0,92,0.00,,,0.00,Wunderground v.1.15,2013-07-22 08:10:00,
2013-07-22 04:15:00,63.4,61.0,29.95,WSW,240,0.0,0.0,92,0.00,,,0.00,Wunderground v.1.15,2013-07-22 08:15:00,
2013-07-22 04:25:00,63.2,60.8,29.95,WSW,241,0.0,0.0,92,0.00,,,0.00,Wunderground v.1.15,2013-07-22 08:25:00,
2013-07-22 04:30:00,63.1,61.0,29.95,WSW,241,0.0,0.0,93,0.00,,,0.00,Wunderground v.1.15,2013-07-22 08:30:00,
2013-07-22 04:35:00,63.1,61.0,29.95,WSW,241,0.0,0.0,93,0.00,,,0.00,Wunderground v.1.15,2013-07-22 08:35:00,
2013-07-22 04:40:00,63.0,60.9,29.95,WSW,241,0.0,0.0,93,0.00,,,0.00,Wunderground v.1.15,2013-07-22 08:40:00,
2013-07-22 04:45:00,62.9,60.8,29.95,WSW,240,0.0,0.0,93,0.00,,,0.00,Wunderground v.1.15,2013-07-22 08:45:00,
2013-07-22 04:55:00,62.7,60.9,29.95,WSW,241,0.0,0.0,94,0.00,,,0.00,Wunderground v.1.15,2013-07-22 08:55:00,
2013-07-22 05:00:00,62.6,60.8,29.96,WSW,240,0.0,0.0,94,0.00,,,0.00,Wunderground v.1.15,2013-07-22 09:00:00,
2013-07-22 05:10:00,62.5,60.7,29.96,WSW,240,0.0,0.0,94,0.00,,,0.00,Wunderground v.1.15,2013-07-22 09:10:00,
2013-07-22 05:15:00,62.5,60.7,29.96,WSW,240,0.0,0.0,94,0.00,,,0.00,Wunderground v.1.15,2013-07-22 09:15:00,
2013-07-22 05:20:00,62.4,60.9,29.95,WSW,240,0.0,0.0,95,0.00,,,0.00,Wunderground v.1.15,2013-07-22 09:20:00,
2013-07-22 05:29:00,62.2,60.8,29.96,WSW,240,0.0,0.0,95,0.00,,,0.00,Wunderground v.1.15,2013-07-22 09:29:00,
2013-07-22 05:34:00,62.1,60.7,29.96,WSW,240,0.0,0.0,95,0.00,,,0.00,Wunderground v.1.15,2013-07-22 09:34:00,
2013-07-22 05:39:00,62.0,60.6,29.96,WSW,240,0.0,0.0,95,0.00,,,0.00,Wunderground v.1.15,2013-07-22 09:39:00,
2013-07-22 05:44:00,61.9,60.7,29.96,WSW,240,0.0,0.0,96,0.00,,,0.00,Wunderground v.1.15,2013-07-22 09:44:00,
2013-07-22 05:49:00,61.9,60.7,29.96,WSW,240,0.0,0.0,96,0.00,,,0.00,Wunderground v.1.15,2013-07-22 09:49:00,
2013-07-22 06:00:00,61.8,60.6,29.96,WSW,240,0.0,0.0,96,0.00,,,0.00,Wunderground v.1.15,2013-07-22 10:00:00,
2013-07-22 06:09:00,61.8,60.6,29.96,WSW,240,0.0,0.0,96,0.00,,,0.00,Wunderground v.1.15,2013-07-22 10:09:00,
2013-07-22 06:14:00,61.9,60.7,29.96,WSW,240,0.0,0.0,96,0.00,,,0.00,Wunderground v.1.15,2013-07-22 10:14:00,
2013-07-22 06:19:00,61.9,60.7,29.96,WSW,240,0.0,0.0,96,0.00,,,0.00,Wunderground v.1.15,2013-07-22 10:19:00,
2013-07-22 06:24:00,61.8,60.6,29.96,WSW,240,0.0,0.0,96,0.00,,,0.00,Wunderground v.1.15,2013-07-22 10:24:00,
2013-07-22 06:30:00,61.9,60.7,29.96,WSW,240,0.0,0.0,96,0.00,,,0.00,Wunderground v.1.15,2013-07-22 10:30:00,
2013-07-22 06:35:00,61.8,60.6,29.96,WSW,240,0.0,0.0,96,0.00,,,0.00,Wunderground v.1.15,2013-07-22 10:35:00,
2013-07-22 06:40:00,61.9,61.0,29.97,WSW,240,0.0,0.0,97,0.00,,,0.00,Wunderground v.1.15,2013-07-22 10:40:00,
2013-07-22 06:45:00,62.1,61.2,29.97,WSW,240,0.0,0.0,97,0.00,,,0.00,Wunderground v.1.15,2013-07-22 10:45:00,
2013-07-22 06:50:00,62.2,61.3,29.97,WSW,240,0.0,0.0,97,0.00,,,0.00,Wunderground v.1.15,2013-07-22 10:50:00,
2013-07-22 06:55:00,62.4,61.5,29.97,WSW,240,0.0,0.0,97,0.00,,,0.00,Wunderground v.1.15,2013-07-22 10:55:00,
2013-07-22 07:00:00,62.7,61.8,29.96,WSW,240,0.0,0.0,97,0.00,,,0.00,Wunderground v.1.15,2013-07-22 11:00:00,
2013-07-22 07:10:00,63.2,62.0,29.96,East,98,0.0,0.0,96,0.00,,,0.00,Wunderground v.1.15,2013-07-22 11:10:00,
2013-07-22 07:15:00,63.5,62.0,29.97,East,97,0.0,0.0,95,0.00,,,0.00,Wunderground v.1.15,2013-07-22 11:15:00,
2013-07-22 07:20:00,63.9,62.4,29.96,East,97,0.0,0.0,95,0.00,,,0.00,Wunderground v.1.15,2013-07-22 11:20:00,
2013-07-22 07:25:00,64.1,62.3,29.96,ENE,61,0.0,0.0,94,0.00,,,0.00,Wunderground v.1.15,2013-07-22 11:25:00,
2013-07-22 07:35:00,64.6,62.2,29.96,NE,54,0.0,0.0,92,0.00,,,0.00,Wunderground v.1.15,2013-07-22 11:35:00,
2013-07-22 07:40:00,64.8,62.4,29.96,NE,54,0.0,0.0,92,0.00,,,0.00,Wunderground v.1.15,2013-07-22 11:40:00,
2013-07-22 07:45:00,65.0,62.6,29.96,NE,56,0.0,0.0,92,0.00,,,0.00,Wunderground v.1.15,2013-07-22 11:45:00,
2013-07-22 07:50:00,65.2,62.5,29.96,ENE,73,0.0,0.0,91,0.00,,,0.00,Wunderground v.1.15,2013-07-22 11:50:00,
2013-07-22 07:55:00,65.6,62.9,29.96,ENE,73,0.0,0.0,91,0.00,,,0.00,Wunderground v.1.15,2013-07-22 11:55:00,
2013-07-22 08:00:00,66.0,63.0,29.96,ENE,73,0.0,0.0,90,0.00,,,0.00,Wunderground v.1.15,2013-07-22 12:00:00,
2013-07-22 08:10:00,66.6,63.3,29.96,NE,48,0.0,0.0,89,0.00,,,0.00,Wunderground v.1.15,2013-07-22 12:10:00,
2013-07-22 08:15:00,66.9,63.6,29.96,NE,48,0.0,0.0,89,0.00,,,0.00,Wunderground v.1.15,2013-07-22 12:15:00,
2013-07-22 08:20:00,67.2,63.5,29.96,NE,49,0.0,0.0,88,0.00,,,0.00,Wunderground v.1.15,2013-07-22 12:20:00,
2013-07-22 08:25:00,67.6,63.9,29.96,ESE,122,0.0,0.0,88,0.00,,,0.00,Wunderground v.1.15,2013-07-22 12:25:00,
2013-07-22 08:30:00,68.0,63.7,29.96,ENE,75,0.0,0.0,86,0.00,,,0.00,Wunderground v.1.15,2013-07-22 12:30:00,
2013-07-22 08:35:00,68.3,63.9,29.96,North,353,0.0,0.0,86,0.00,,,0.00,Wunderground v.1.15,2013-07-22 12:35:00,
2013-07-22 08:40:00,68.8,64.1,29.96,NNE,28,0.0,0.0,85,0.00,,,0.00,Wunderground v.1.15,2013-07-22 12:40:00,
2013-07-22 08:45:00,69.0,64.3,29.96,ENE,61,0.0,0.0,85,0.00,,,0.00,Wunderground v.1.15,2013-07-22 12:45:00,
2013-07-22 08:50:00,69.4,64.7,29.96,ENE,58,0.0,0.0,85,0.00,,,0.00,Wunderground v.1.15,2013-07-22 12:50:00,
2013-07-22 08:55:00,69.7,64.3,29.96,SE,124,0.0,1.0,83,0.00,,,0.00,Wunderground v.1.15,2013-07-22 12:55:00,
2013-07-22 09:00:00,70.1,64.3,29.96,ENE,69,0.0,1.0,82,0.00,,,0.00,Wunderground v.1.15,2013-07-22 13:00:00,
2013-07-22 09:10:00,70.7,63.5,29.95,SE,132,0.0,1.0,78,0.00,,,0.00,Wunderground v.1.15,2013-07-22 13:10:00,
2013-07-22 09:15:00,71.3,63.7,29.95,SE,146,0.0,1.0,77,0.00,,,0.00,Wunderground v.1.15,2013-07-22 13:15:00,
2013-07-22 09:20:00,71.9,64.7,29.95,NE,40,0.0,1.0,78,0.00,,,0.00,Wunderground v.1.15,2013-07-22 13:20:00,
2013-07-22 09:25:00,72.0,64.8,29.95,North,355,0.0,1.0,78,0.00,,,0.00,Wunderground v.1.15,2013-07-22 13:25:00,
2013-07-22 09:30:00,72.0,63.6,29.95,ENE,58,0.0,0.0,75,0.00,,,0.00,Wunderground v.1.15,2013-07-22 13:30:00,
2013-07-22 09:35:00,72.2,65.0,29.95,ENE,63,1.0,1.0,78,0.00,,,0.00,Wunderground v.1.15,2013-07-22 13:35:00,
2013-07-22 09:40:00,73.2,65.2,29.94,ESE,122,0.0,0.0,76,0.00,,,0.00,Wunderground v.1.15,2013-07-22 13:40:00,
2013-07-22 09:45:00,73.7,64.5,29.94,East,97,0.0,0.0,73,0.00,,,0.00,Wunderground v.1.15,2013-07-22 13:45:00,
2013-07-22 09:50:00,73.9,64.3,29.94,ESE,122,0.0,1.0,72,0.00,,,0.00,Wunderground v.1.15,2013-07-22 13:50:00,
2013-07-22 09:55:00,74.2,64.6,29.94,SE,129,0.0,1.0,72,0.00,,,0.00,Wunderground v.1.15,2013-07-22 13:55:00,
2013-07-22 10:00:00,74.4,64.4,29.94,NE,56,0.0,1.0,71,0.00,,,0.00,Wunderground v.1.15,2013-07-22 14:00:00,
2013-07-22 10:10:00,75.8,64.5,29.94,East,81,0.0,1.0,68,0.00,,,0.00,Wunderground v.1.15,2013-07-22 14:10:00,
2013-07-22 10:20:00,76.3,65.0,29.93,ENE,77,0.0,0.0,68,0.00,,,0.00,Wunderground v.1.15,2013-07-22 14:20:00,
2013-07-22 10:25:00,76.9,65.5,29.93,ESE,121,0.0,0.0,68,0.00,,,0.00,Wunderground v.1.15,2013-07-22 14:25:00,
2013-07-22 10:30:00,76.4,64.2,29.93,WSW,251,1.0,1.0,66,0.00,,,0.00,Wunderground v.1.15,2013-07-22 14:30:00,
2013-07-22 10:35:00,77.2,64.1,29.93,ESE,118,1.0,1.0,64,0.00,,,0.00,Wunderground v.1.15,2013-07-22 14:35:00,
2013-07-22 10:40:00,77.6,62.6,29.93,SE,146,1.0,1.0,60,0.00,,,0.00,Wunderground v.1.15,2013-07-22 14:40:00,
2013-07-22 10:49:00,77.3,63.7,29.93,ESE,108,1.0,2.0,63,0.00,,,0.00,Wunderground v.1.15,2013-07-22 14:49:00,
2013-07-22 10:54:00,77.1,64.0,29.93,East,96,1.0,2.0,64,0.00,,,0.00,Wunderground v.1.15,2013-07-22 14:54:00,
2013-07-22 11:00:00,77.1,64.0,29.93,West,262,1.0,1.0,64,0.00,,,0.00,Wunderground v.1.15,2013-07-22 15:00:00,
2013-07-22 11:09:00,77.7,64.5,29.93,SSE,163,1.0,2.0,64,0.00,,,0.00,Wunderground v.1.15,2013-07-22 15:09:00,
2013-07-22 11:14:00,78.4,64.8,29.92,SE,127,1.0,2.0,63,0.00,,,0.00,Wunderground v.1.15,2013-07-22 15:14:00,
2013-07-22 11:24:00,78.5,64.9,29.92,SSE,147,1.0,1.0,63,0.00,,,0.00,Wunderground v.1.15,2013-07-22 15:24:00,
2013-07-22 11:29:00,78.5,65.8,29.92,East,96,1.0,1.0,65,0.00,,,0.00,Wunderground v.1.15,2013-07-22 15:29:00,
2013-07-22 11:34:00,79.3,67.0,29.92,East,97,1.0,2.0,66,0.00,,,0.00,Wunderground v.1.15,2013-07-22 15:34:00,
2013-07-22 11:39:00,79.0,66.2,29.93,ESE,122,1.0,1.0,65,0.00,,,0.00,Wunderground v.1.15,2013-07-22 15:39:00,
2013-07-22 11:44:00,79.0,65.8,29.93,SSE,147,1.0,1.0,64,0.00,,,0.00,Wunderground v.1.15,2013-07-22 15:44:00,
2013-07-22 11:50:00,79.5,66.3,29.92,SE,129,1.0,3.0,64,0.00,,,0.00,Wunderground v.1.15,2013-07-22 15:50:00,
2013-07-22 11:55:00,79.9,66.2,29.92,SSE,148,1.0,3.0,63,0.00,,,0.00,Wunderground v.1.15,2013-07-22 15:55:00,
2013-07-22 12:00:00,80.4,67.6,29.92,SE,146,0.0,0.0,65,0.00,,,0.00,Wunderground v.1.15,2013-07-22 16:00:00,
2013-07-22 12:09:00,81.1,68.2,29.91,East,80,0.0,1.0,65,0.00,,,0.00,Wunderground v.1.15,2013-07-22 16:09:00,
2013-07-22 12:14:00,81.2,67.4,29.91,East,98,1.0,3.0,63,0.00,,,0.00,Wunderground v.1.15,2013-07-22 16:14:00,
2013-07-22 12:19:00,82.1,68.3,29.91,NW,311,0.0,0.0,63,0.00,,,0.00,Wunderground v.1.15,2013-07-22 16:19:00,
2013-07-22 12:25:00,83.0,67.2,29.91,WSW,254,0.0,0.0,59,0.00,,,0.00,Wunderground v.1.15,2013-07-22 16:25:00,
2013-07-22 12:30:00,82.9,67.6,29.91,SE,133,0.0,0.0,60,0.00,,,0.00,Wunderground v.1.15,2013-07-22 16:30:00,
2013-07-22 12:35:00,82.8,68.0,29.91,East,84,0.0,0.0,61,0.00,,,0.00,Wunderground v.1.15,2013-07-22 16:35:00,
2013-07-22 12:40:00,82.7,66.9,29.91,SSE,157,0.0,0.0,59,0.00,,,0.00,Wunderground v.1.15,2013-07-22 16:40:00,
2013-07-22 12:45:00,82.5,66.7,29.91,ESE,117,0.0,0.0,59,0.00,,,0.00,Wunderground v.1.15,2013-07-22 16:45:00,
2013-07-22 12:50:00,82.2,66.0,29.91,WSW,250,0.0,1.0,58,0.00,,,0.00,Wunderground v.1.15,2013-07-22 16:50:00,
2013-07-22 13:00:00,82.2,67.9,29.91,WSW,240,0.0,1.0,62,0.00,,,0.00,Wunderground v.1.15,2013-07-22 17:00:00,
2013-07-22 13:10:00,82.6,66.8,29.90,SSE,153,1.0,1.0,59,0.00,,,0.00,Wunderground v.1.15,2013-07-22 17:10:00,
2013-07-22 13:15:00,83.0,69.1,29.90,ESE,112,0.0,1.0,63,0.00,,,0.00,Wunderground v.1.15,2013-07-22 17:15:00,
2013-07-22 13:20:00,82.4,67.6,29.90,ENE,70,0.0,0.0,61,0.00,,,0.00,Wunderground v.1.15,2013-07-22 17:20:00,
2013-07-22 13:30:00,81.4,67.1,29.90,ENE,64,0.0,1.0,62,0.00,,,0.00,Wunderground v.1.15,2013-07-22 17:30:00,
2013-07-22 13:35:00,80.7,67.8,29.90,ENE,72,0.0,1.0,65,0.00,,,0.00,Wunderground v.1.15,2013-07-22 17:35:00,
2013-07-22 13:40:00,80.7,67.8,29.90,ENE,72,0.0,0.0,65,0.00,,,0.00,Wunderground v.1.15,2013-07-22 17:40:00,
2013-07-22 13:45:00,80.1,67.3,29.90,NNW,334,1.0,1.0,65,0.00,,,0.00,Wunderground v.1.15,2013-07-22 17:45:00,
2013-07-22 13:50:00,79.7,67.3,29.89,East,84,1.0,1.0,66,0.00,,,0.00,Wunderground v.1.15,2013-07-22 17:50:00,
2013-07-22 13:55:00,79.7,67.8,29.89,ENE,70,1.0,1.0,67,0.00,,,0.00,Wunderground v.1.15,2013-07-22 17:55:00,
2013-07-22 14:00:00,79.7,67.8,29.89,NE,50,1.0,2.0,67,0.00,,,0.00,Wunderground v.1.15,2013-07-22 18:00:00,
2013-07-22 14:05:00,79.6,67.7,29.89,ENE,63,1.0,2.0,67,0.00,,,0.00,Wunderground v.1.15,2013-07-22 18:05:00,
2013-07-22 14:15:00,79.2,67.3,29.88,ENE,75,1.0,1.0,67,0.00,,,0.00,Wunderground v.1.15,2013-07-22 18:15:00,
2013-07-22 14:20:00,78.9,67.4,29.88,East,83,0.0,0.0,68,0.00,,,0.00,Wunderground v.1.15,2013-07-22 18:20:00,
2013-07-22 14:25:00,79.2,67.3,29.88,NW,326,0.0,2.0,67,0.00,,,0.00,Wunderground v.1.15,2013-07-22 18:25:00,
2013-07-22 14:30:00,79.2,67.3,29.88,ENE,73,0.0,1.0,67,0.00,,,0.00,Wunderground v.1.15,2013-07-22 18:30:00,
2013-07-22 14:40:00,79.4,67.9,29.87,East,92,0.0,0.0,68,0.00,,,0.00,Wunderground v.1.15,2013-07-22 18:40:00,
2013-07-22 14:45:00,79.4,67.0,29.88,East,82,0.0,0.0,66,0.00,,,0.00,Wunderground v.1.15,2013-07-22 18:45:00,
2013-07-22 14:50:00,79.2,67.7,29.87,ENE,72,0.0,0.0,68,0.00,,,0.00,Wunderground v.1.15,2013-07-22 18:50:00,
2013-07-22 14:55:00,79.1,68.1,29.87,East,83,1.0,1.0,69,0.00,,,0.00,Wunderground v.1.15,2013-07-22 18:55:00,
2013-07-22 15:00:00,79.5,68.4,29.87,ENE,74,0.0,0.0,69,0.00,,,0.00,Wunderground v.1.15,2013-07-22 19:00:00,
2013-07-22 15:10:00,79.6,68.1,29.86,NW,319,0.0,1.0,68,0.00,,,0.00,Wunderground v.1.15,2013-07-22 19:10:00,
2013-07-22 15:15:00,79.3,68.7,29.86,NE,51,1.0,1.0,70,0.00,,,0.00,Wunderground v.1.15,2013-07-22 19:15:00,
2013-07-22 15:25:00,79.4,68.3,29.85,ENE,69,0.0,1.0,69,0.00,,,0.00,Wunderground v.1.15,2013-07-22 19:25:00,
2013-07-22 15:30:00,79.7,68.6,29.85,NE,55,0.0,1.0,69,0.00,,,0.00,Wunderground v.1.15,2013-07-22 19:30:00,
2013-07-22 15:40:00,80.3,68.8,29.84,North,11,0.0,0.0,68,0.00,,,0.00,Wunderground v.1.15,2013-07-22 19:40:00,
2013-07-22 15:45:00,79.9,68.0,29.84,ENE,63,1.0,1.0,67,0.00,,,0.00,Wunderground v.1.15,2013-07-22 19:45:00,
2013-07-22 15:55:00,79.7,68.2,29.83,ENE,78,0.0,1.0,68,0.00,,,0.00,Wunderground v.1.15,2013-07-22 19:55:00,
2013-07-22 16:00:00,79.7,68.2,29.83,ENE,61,0.0,0.0,68,0.00,,,0.00,Wunderground v.1.15,2013-07-22 20:00:00,
2013-07-22 16:10:00,81.7,69.2,29.82,East,96,0.0,0.0,66,0.00,,,0.00,Wunderground v.1.15,2013-07-22 20:10:00,
2013-07-22 16:15:00,81.9,69.4,29.82,NNW,328,0.0,0.0,66,0.00,,,0.00,Wunderground v.1.15,2013-07-22 20:15:00,
2013-07-22 16:20:00,82.1,70.1,29.82,East,101,0.0,0.0,67,0.00,,,0.00,Wunderground v.1.15,2013-07-22 20:20:00,
2013-07-22 16:30:00,82.2,69.3,29.82,NNE,29,1.0,1.0,65,0.00,,,0.00,Wunderground v.1.15,2013-07-22 20:30:00,
2013-07-22 16:35:00,81.6,69.1,29.82,ENE,75,1.0,1.0,66,0.00,,,0.00,Wunderground v.1.15,2013-07-22 20:35:00,
2013-07-22 16:40:00,81.3,69.3,29.82,ENE,60,0.0,1.0,67,0.00,,,0.00,Wunderground v.1.15,2013-07-22 20:40:00,
2013-07-22 16:45:00,81.0,69.0,29.83,NE,35,1.0,1.0,67,0.00,,,0.00,Wunderground v.1.15,2013-07-22 20:45:00,
2013-07-22 16:50:00,81.0,69.4,29.82,ENE,70,1.0,1.0,68,0.00,,,0.00,Wunderground v.1.15,2013-07-22 20:50:00,
2013-07-22 17:00:00,80.4,68.9,29.82,North,8,1.0,1.0,68,0.00,,,0.00,Wunderground v.1.15,2013-07-22 21:00:00,
2013-07-22 17:09:00,80.2,68.7,29.82,ENE,67,0.0,0.0,68,0.00,,,0.00,Wunderground v.1.15,2013-07-22 21:09:00,
2013-07-22 17:14:00,80.2,69.5,29.82,ENE,65,0.0,0.0,70,0.00,,,0.00,Wunderground v.1.15,2013-07-22 21:14:00,
2013-07-22 17:19:00,80.0,69.3,29.82,NNW,331,0.0,0.0,70,0.00,,,0.00,Wunderground v.1.15,2013-07-22 21:19:00,
2013-07-22 17:24:00,79.8,69.6,29.82,North,6,0.0,1.0,71,0.00,,,0.00,Wunderground v.1.15,2013-07-22 21:24:00,
2013-07-22 17:34:00,79.6,69.4,29.81,NNE,23,0.0,0.0,71,0.00,,,0.00,Wunderground v.1.15,2013-07-22 21:34:00,
2013-07-22 17:39:00,79.3,69.5,29.81,NE,51,0.0,1.0,72,0.00,,,0.00,Wunderground v.1.15,2013-07-22 21:39:00,
2013-07-22 17:44:00,79.2,69.4,29.81,NNE,15,0.0,1.0,72,0.00,,,0.00,Wunderground v.1.15,2013-07-22 21:44:00,
2013-07-22 17:49:00,79.1,69.3,29.81,NE,50,0.0,0.0,72,0.00,,,0.00,Wunderground v.1.15,2013-07-22 21:49:00,
2013-07-22 17:54:00,78.8,69.4,29.81,ENE,66,0.0,0.0,73,0.00,,,0.00,Wunderground v.1.15,2013-07-22 21:54:00,
2013-07-22 18:00:00,78.4,69.8,29.81,ENE,65,0.0,1.0,75,0.00,,,0.00,Wunderground v.1.15,2013-07-22 22:00:00,
2013-07-22 18:10:00,77.6,69.4,29.80,NNW,333,0.0,0.0,76,0.00,,,0.00,Wunderground v.1.15,2013-07-22 22:10:00,
2013-07-22 18:15:00,77.3,69.5,29.80,NNW,331,0.0,1.0,77,0.00,,,0.00,Wunderground v.1.15,2013-07-22 22:15:00,
2013-07-22 18:20:00,77.2,69.8,29.80,ENE,68,0.0,0.0,78,0.00,,,0.00,Wunderground v.1.15,2013-07-22 22:20:00,
2013-07-22 18:25:00,76.9,69.5,29.80,NE,43,0.0,0.0,78,0.00,,,0.00,Wunderground v.1.15,2013-07-22 22:25:00,
2013-07-22 18:30:00,76.8,69.8,29.80,North,1,0.0,0.0,79,0.00,,,0.00,Wunderground v.1.15,2013-07-22 22:30:00,
2013-07-22 18:39:00,76.5,69.5,29.79,ENE,67,0.0,0.0,79,0.00,,,0.00,Wunderground v.1.15,2013-07-22 22:39:00,
2013-07-22 18:44:00,76.4,69.4,29.79,North,353,0.0,0.0,79,0.00,,,0.00,Wunderground v.1.15,2013-07-22 22:44:00,
2013-07-22 18:49:00,76.3,69.3,29.79,NNE,15,0.0,1.0,79,0.00,,,0.00,Wunderground v.1.15,2013-07-22 22:49:00,
2013-07-22 18:54:00,76.2,69.2,29.79,NNW,340,0.0,1.0,79,0.00,,,0.00,Wunderground v.1.15,2013-07-22 22:54:00,
2013-07-22 19:00:00,76.0,69.0,29.79,NNE,17,1.0,1.0,79,0.00,,,0.00,Wunderground v.1.15,2013-07-22 23:00:00,
2013-07-22 19:09:00,75.9,68.9,29.79,NE,34,0.0,1.0,79,0.00,,,0.00,Wunderground v.1.15,2013-07-22 23:09:00,
2013-07-22 19:14:00,75.7,68.7,29.78,NE,53,0.0,1.0,79,0.00,,,0.00,Wunderground v.1.15,2013-07-22 23:14:00,
2013-07-22 19:19:00,75.7,69.1,29.79,North,352,0.0,0.0,80,0.00,,,0.00,Wunderground v.1.15,2013-07-22 23:19:00,
2013-07-22 19:24:00,75.6,69.0,29.79,NNE,31,0.0,0.0,80,0.00,,,0.00,Wunderground v.1.15,2013-07-22 23:24:00,
2013-07-22 19:29:00,75.5,68.9,29.79,NNE,31,0.0,0.0,80,0.00,,,0.00,Wunderground v.1.15,2013-07-22 23:29:00,
2013-07-22 19:35:00,75.4,68.8,29.79,NNW,330,0.0,0.0,80,0.00,,,0.00,Wunderground v.1.15,2013-07-22 23:35:00,
2013-07-22 19:45:00,75.1,68.9,29.79,NE,51,0.0,0.0,81,0.00,,,0.00,Wunderground v.1.15,2013-07-22 23:45:00,
2013-07-22 19:50:00,75.0,68.8,29.80,North,350,0.0,0.0,81,0.00,,,0.00,Wunderground v.1.15,2013-07-22 23:50:00,
2013-07-22 19:55:00,74.8,68.6,29.80,North,351,0.0,0.0,81,0.00,,,0.00,Wunderground v.1.15,2013-07-22 23:55:00,
2013-07-22 20:00:00,74.7,68.5,29.80,North,351,0.0,0.0,81,0.00,,,0.00,Wunderground v.1.15,2013-07-23 00:00:00,
2013-07-22 20:09:00,74.6,68.7,29.80,North,350,0.0,0.0,82,0.00,,,0.00,Wunderground v.1.15,2013-07-23 00:09:00,
2013-07-22 20:15:00,74.5,68.6,29.80,North,350,0.0,0.0,82,0.00,,,0.00,Wunderground v.1.15,2013-07-23 00:15:00,
2013-07-22 20:20:00,74.4,68.5,29.80,North,350,0.0,0.0,82,0.00,,,0.00,Wunderground v.1.15,2013-07-23 00:20:00,
2013-07-22 20:25:00,74.3,68.4,29.80,North,350,0.0,0.0,82,0.00,,,0.00,Wunderground v.1.15,2013-07-23 00:25:00,
2013-07-22 20:30:00,74.2,68.3,29.79,North,350,0.0,0.0,82,0.00,,,0.00,Wunderground v.1.15,2013-07-23 00:30:00,
2013-07-22 20:35:00,74.1,68.6,29.79,North,350,0.0,0.0,83,0.00,,,0.00,Wunderground v.1.15,2013-07-23 00:35:00,
2013-07-22 20:40:00,73.9,68.4,29.79,North,350,0.0,0.0,83,0.00,,,0.00,Wunderground v.1.15,2013-07-23 00:40:00,
2013-07-22 20:50:00,73.6,68.1,29.79,WNW,289,0.0,0.0,83,0.00,,,0.00,Wunderground v.1.15,2013-07-23 00:50:00,
2013-07-22 20:55:00,73.3,68.5,29.79,WNW,289,0.0,0.0,85,0.00,,,0.00,Wunderground v.1.15,2013-07-23 00:55:00,
2013-07-22 21:00:00,73.0,68.2,29.79,WNW,289,0.0,0.0,85,0.00,,,0.00,Wunderground v.1.15,2013-07-23 01:00:00,
2013-07-22 21:10:00,72.4,68.3,29.79,WNW,289,0.0,0.0,87,0.00,,,0.00,Wunderground v.1.15,2013-07-23 01:10:00,
2013-07-22 21:20:00,71.9,68.5,29.79,WNW,289,0.0,0.0,89,0.00,,,0.00,Wunderground v.1.15,2013-07-23 01:20:00,
2013-07-22 21:25:00,71.6,68.2,29.80,WNW,289,0.0,0.0,89,0.00,,,0.01,Wunderground v.1.15,2013-07-23 01:25:00,
2013-07-22 21:30:00,71.6,68.2,29.80,WSW,243,0.0,0.0,89,0.00,,,0.01,Wunderground v.1.15,2013-07-23 01:30:00,
2013-07-22 21:35:00,71.5,68.4,29.80,WSW,243,0.0,0.0,90,0.00,,,0.01,Wunderground v.1.15,2013-07-23 01:35:00,
2013-07-22 21:40:00,71.2,68.4,29.80,WSW,243,0.0,0.0,91,0.00,,,0.01,Wunderground v.1.15,2013-07-23 01:40:00,
2013-07-22 21:45:00,71.0,68.6,29.80,SW,231,0.0,0.0,92,0.00,,,0.01,Wunderground v.1.15,2013-07-23 01:45:00,
2013-07-22 21:54:00,70.7,67.9,29.80,SW,231,0.0,0.0,91,0.00,,,0.01,Wunderground v.1.15,2013-07-23 01:54:00,
2013-07-22 22:00:00,70.7,68.3,29.80,SW,231,0.0,0.0,92,0.00,,,0.01,Wunderground v.1.15,2013-07-23 02:00:00,
2013-07-22 22:10:00,70.6,68.8,29.80,SW,231,0.0,0.0,94,0.00,,,0.01,Wunderground v.1.15,2013-07-23 02:10:00,
2013-07-22 22:15:00,70.5,68.4,29.80,SW,231,0.0,0.0,93,0.00,,,0.02,Wunderground v.1.15,2013-07-23 02:15:00,
2013-07-22 22:24:00,70.5,69.0,29.80,SW,231,0.0,0.0,95,0.00,,,0.02,Wunderground v.1.15,2013-07-23 02:24:00,
2013-07-22 22:29:00,70.5,69.0,29.79,SW,231,0.0,0.0,95,0.00,,,0.02,Wunderground v.1.15,2013-07-23 02:29:00,
2013-07-22 22:34:00,70.5,69.0,29.79,SW,231,0.0,0.0,95,0.00,,,0.02,Wunderground v.1.15,2013-07-23 02:34:00,
2013-07-22 22:39:00,70.5,69.0,29.79,SW,221,0.0,0.0,95,0.00,,,0.02,Wunderground v.1.15,2013-07-23 02:39:00,
2013-07-22 22:44:00,70.4,68.9,29.79,SSE,152,0.0,0.0,95,0.00,,,0.02,Wunderground v.1.15,2013-07-23 02:44:00,
2013-07-22 22:49:00,70.4,68.9,29.79,SSE,152,0.0,0.0,95,0.00,,,0.02,Wunderground v.1.15,2013-07-23 02:49:00,
2013-07-22 23:00:00,70.6,69.1,29.79,ESE,123,0.0,0.0,95,0.00,,,0.03,Wunderground v.1.15,2013-07-23 03:00:00,
2013-07-22 23:09:00,70.7,68.6,29.78,ESE,105,0.0,2.0,93,0.00,,,0.03,Wunderground v.1.15,2013-07-23 03:09:00,
2013-07-22 23:14:00,70.7,68.6,29.78,WSW,241,1.0,2.0,93,0.00,,,0.03,Wunderground v.1.15,2013-07-23 03:14:00,
2013-07-22 23:19:00,70.6,68.8,29.78,ENE,75,1.0,1.0,94,0.00,,,0.04,Wunderground v.1.15,2013-07-23 03:19:00,
2013-07-22 23:29:00,70.4,68.6,29.78,East,99,0.0,0.0,94,0.00,,,0.04,Wunderground v.1.15,2013-07-23 03:29:00,
2013-07-22 23:34:00,70.4,68.9,29.78,ESE,113,0.0,0.0,95,0.04,,,0.05,Wunderground v.1.15,2013-07-23 03:34:00,
2013-07-22 23:39:00,70.3,68.8,29.78,ESE,113,0.0,0.0,95,0.04,,,0.05,Wunderground v.1.15,2013-07-23 03:39:00,
2013-07-22 23:44:00,70.3,68.8,29.78,ESE,113,0.0,0.0,95,0.04,,,0.05,Wunderground v.1.15,2013-07-23 03:44:00,
2013-07-22 23:49:00,70.3,68.8,29.78,ESE,103,0.0,0.0,95,0.04,,,0.06,Wunderground v.1.15,2013-07-23 03:49:00,
2013-07-22 23:54:00,70.3,68.8,29.78,ESE,112,0.0,0.0,95,0.04,,,0.06,Wunderground v.1.15,2013-07-23 03:54:00,